Terminal Aerodrome Forecast
Issued by NWS St Louis, MO

Home | Current Version | Previous Version | Text Only | Print | Product List | Glossary On
Versions: 1 2 3 4 5 6 7 8 9 10 11 12 13 14 15 16
000
FTUS43 KLSX 122320
TAFCOU
TAF
KCOU 122320Z 1300/1324 24005KT P6SM SKC
     FM130800 21008KT P6SM SKC WS020/24035KT
     FM131200 21011G17KT P6SM FEW120 WS012/24045KT
     FM131500 25016G26KT P6SM FEW250 WS012/25050KT
     FM131700 28016G29KT P6SM FEW250
     FM132300 32014G23KT P6SM SCT140=

USA.gov is the U.S. government's official web portal to all federal, state and local government web resources and services.